Time;durP1;ratioP1;P1;durP2;ratioP2;P2;SDS_P1;SDS_P2;PMS_P1;PMS_P2;Temp;Humidity;BMP_temperature;BMP_pressure;BME280_temperature;BME280_humidity;BME280_pressure;Samples;Min_cycle;Max_cycle;Signal;HPM_P1;HPM_P2
2022/11/13 00:01:49;;;;;;;8.93;6.90;;;;;;;6.47;100.00;102707.00;5075386;28;20055;-34
2022/11/13 00:04:14;;;;;;;8.90;7.70;;;;;;;6.36;100.00;102672.34;5075835;28;20023;-34
2022/11/13 00:06:40;;;;;;;10.67;7.53;;;;;;;6.48;100.00;102700.63;5073587;28;20499;-34
2022/11/13 00:09:05;;;;;;;9.93;8.30;;;;;;;6.38;100.00;102681.94;5075218;28;20400;-34
2022/11/13 00:11:31;;;;;;;9.23;8.20;;;;;;;6.41;100.00;102691.53;5075423;28;20064;-34
2022/11/13 00:13:56;;;;;;;9.15;8.20;;;;;;;6.41;100.00;102688.84;5075675;28;20063;-34
2022/11/13 00:16:21;;;;;;;10.07;7.97;;;;;;;6.39;100.00;102685.44;5075375;28;20431;-34
2022/11/13 00:18:47;;;;;;;7.80;6.93;;;;;;;6.29;100.00;102685.56;5074747;28;20021;-34
2022/11/13 00:21:18;;;;;;;9.25;7.82;;;;;;;6.31;100.00;102683.56;5074713;28;20111;-34
2022/11/13 00:23:43;;;;;;;10.43;8.15;;;;;;;6.38;100.00;102681.94;5075007;28;20106;-34
2022/11/13 00:26:20;;;;;;;10.65;7.95;;;;;;;6.32;100.00;102677.19;5075182;28;20033;-34
2022/11/13 00:28:45;;;;;;;9.25;6.55;;;;;;;6.38;100.00;102691.84;5075400;28;20106;-34
2022/11/13 00:31:13;;;;;;;9.27;7.40;;;;;;;6.31;100.00;102685.44;5074751;28;20059;-34
2022/11/13 00:33:39;;;;;;;8.50;7.05;;;;;;;6.24;100.00;102662.84;5074968;28;20096;-34
2022/11/13 00:36:09;;;;;;;7.90;6.70;;;;;;;6.28;100.00;102667.75;5074820;28;20112;-34
2022/11/13 00:38:35;;;;;;;9.65;6.63;;;;;;;6.29;100.00;102671.28;5074932;28;20107;-34
2022/11/13 00:41:01;;;;;;;8.97;7.07;;;;;;;6.22;100.00;102659.50;5074356;28;20507;-34
2022/11/13 00:43:26;;;;;;;12.10;8.27;;;;;;;6.10;100.00;102658.91;5073418;28;20093;-34
2022/11/13 00:45:52;;;;;;;8.45;7.45;;;;;;;6.11;100.00;102671.34;5075104;28;20025;-34
2022/11/13 00:48:17;;;;;;;10.90;7.63;;;;;;;6.07;100.00;102668.13;5074563;28;20020;-34
2022/11/13 00:50:43;;;;;;;8.63;7.25;;;;;;;6.05;100.00;102658.53;5074348;28;20130;-34
2022/11/13 00:53:08;;;;;;;8.20;6.88;;;;;;;6.01;100.00;102662.56;5074226;28;20031;-34
2022/11/13 00:55:34;;;;;;;8.53;7.03;;;;;;;5.89;100.00;102649.31;5074303;28;20049;-34
2022/11/13 00:57:59;;;;;;;8.13;6.60;;;;;;;5.86;100.00;102646.97;5074041;28;20047;-34
2022/11/13 01:00:24;;;;;;;8.83;6.50;;;;;;;5.96;100.00;102654.13;5074280;28;20060;-34
2022/11/13 01:02:49;;;;;;;10.93;7.30;;;;;;;5.86;100.00;102657.72;5074640;28;20068;-34
2022/11/13 01:05:15;;;;;;;9.93;6.77;;;;;;;5.92;100.00;102657.09;5074185;28;20028;-34
2022/11/13 01:07:40;;;;;;;7.67;6.90;;;;;;;5.90;100.00;102653.72;5074352;28;20024;-34
2022/11/13 01:10:06;;;;;;;8.27;6.97;;;;;;;5.87;100.00;102648.66;5074495;28;20036;-34
2022/11/13 01:12:32;;;;;;;;;;;;;;;5.99;100.00;102649.25;5074453;28;20036;-34
2022/11/13 01:14:57;;;;;;;7.97;6.68;;;;;;;5.99;100.00;102648.41;5073900;28;19908;-34
2022/11/13 01:17:23;;;;;;;11.23;7.17;;;;;;;6.02;100.00;102642.75;5074526;28;20107;-34
2022/11/13 01:19:48;;;;;;;10.23;8.10;;;;;;;6.12;100.00;102647.00;5074141;28;20054;-34
2022/11/13 01:22:13;;;;;;;10.43;8.20;;;;;;;6.18;100.00;102648.22;5073914;28;20611;-34
2022/11/13 01:24:39;;;;;;;8.63;7.50;;;;;;;6.19;100.00;102644.53;5073814;28;20445;-34
2022/11/13 01:27:04;;;;;;;11.40;8.10;;;;;;;6.06;100.00;102625.31;5074377;28;20400;-34
2022/11/13 01:29:30;;;;;;;10.50;8.13;;;;;;;6.15;100.00;102648.56;5073345;28;20323;-34
2022/11/13 01:31:55;;;;;;;14.10;8.13;;;;;;;6.18;100.00;102643.69;5073732;28;20029;-34
2022/11/13 01:34:20;;;;;;;11.57;7.90;;;;;;;6.09;100.00;102643.78;5073399;28;20029;-34
2022/11/13 01:36:46;;;;;;;10.27;8.50;;;;;;;6.13;100.00;102634.41;5074218;28;20082;-34
2022/11/13 01:39:11;;;;;;;11.70;9.23;;;;;;;6.19;100.00;102631.09;5073598;28;20025;-34
2022/11/13 01:41:37;;;;;;;11.27;8.33;;;;;;;6.17;100.00;102630.41;5073778;28;20048;-34
2022/11/13 01:44:02;;;;;;;9.50;7.90;;;;;;;5.99;100.00;102624.25;5074245;28;20021;-34
2022/11/13 01:46:31;;;;;;;11.13;8.40;;;;;;;6.08;100.00;102634.06;5072506;28;20445;-34
2022/11/13 01:49:08;;;;;;;9.90;7.85;;;;;;;6.05;100.00;102626.31;5073995;28;20033;-34
2022/11/13 01:51:38;;;;;;;10.18;7.68;;;;;;;5.85;100.00;102631.00;5073882;28;20028;-34
2022/11/13 01:54:08;;;;;;;11.23;7.53;;;;;;;6.01;100.00;102631.16;5073307;28;20032;-34
2022/11/13 01:56:34;;;;;;;10.73;7.57;;;;;;;6.04;100.00;102628.16;5072858;28;20083;-34
2022/11/13 01:59:07;;;;;;;8.90;7.13;;;;;;;6.11;100.00;102625.69;5073190;28;20032;-34
2022/11/13 02:01:33;;;;;;;9.57;7.13;;;;;;;6.11;100.00;102625.69;5072853;28;20054;-34
2022/11/13 02:03:59;;;;;;;9.18;7.53;;;;;;;6.08;100.00;102616.09;5072817;28;20032;-34
2022/11/13 02:06:29;;;;;;;10.35;7.60;;;;;;;5.85;100.00;102594.25;5072681;28;20337;-34
2022/11/13 02:08:55;;;;;;;11.20;8.35;;;;;;;5.97;100.00;102594.03;5073065;28;20373;-34
2022/11/13 02:11:21;;;;;;;10.45;7.57;;;;;;;6.04;100.00;102598.59;5071549;28;20020;-34
2022/11/13 02:13:47;;;;;;;9.57;7.30;;;;;;;6.10;100.00;102602.50;5073219;28;20071;-34
2022/11/13 02:16:12;;;;;;;11.45;8.23;;;;;;;6.03;100.00;102591.56;5072629;28;20400;-34
2022/11/13 02:18:39;;;;;;;11.98;7.65;;;;;;;6.08;100.00;102583.03;5072877;28;20430;-34
2022/11/13 02:21:14;;;;;;;8.93;6.85;;;;;;;6.17;100.00;102584.75;5072839;28;20032;-34
2022/11/13 02:23:48;;;;;;;9.10;6.97;;;;;;;6.06;100.00;102599.31;5073295;28;20032;-34
2022/11/13 02:26:15;;;;;;;8.85;7.07;;;;;;;5.95;100.00;102586.13;5073755;28;20029;-34
2022/11/13 02:28:40;;;;;;;8.75;7.47;;;;;;;5.96;100.00;102587.00;5072721;28;20081;-34
2022/11/13 02:31:10;;;;;;;8.40;6.57;;;;;;;6.03;100.00;102590.72;5073026;28;20024;-34
2022/11/13 02:33:36;;;;;;;8.55;6.05;;;;;;;5.87;100.00;102581.53;5072403;28;20262;-34
2022/11/13 02:36:03;;;;;;;8.18;5.88;;;;;;;5.89;100.00;102584.88;5072670;28;20024;-34
2022/11/13 02:38:29;;;;;;;7.60;6.15;;;;;;;5.80;100.00;102585.81;5072740;28;20111;-34
2022/11/13 02:40:55;;;;;;;9.65;6.72;;;;;;;5.80;100.00;102584.97;5072690;28;20321;-34
2022/11/13 02:43:20;;;;;;;9.43;7.20;;;;;;;5.80;100.00;102575.09;5072376;28;20024;-34
2022/11/13 02:45:45;;;;;;;8.67;5.97;;;;;;;5.92;100.00;102586.47;5073035;28;20056;-34
2022/11/13 02:48:11;;;;;;;8.17;5.90;;;;;;;5.89;100.00;102574.13;5072747;28;20538;-34
2022/11/13 02:50:37;;;;;;;6.67;5.97;;;;;;;5.90;100.00;102575.84;5072418;28;20025;-34
2022/11/13 02:53:03;;;;;;;;;;;;;;;5.96;100.00;102571.72;5072723;28;20032;-34
2022/11/13 02:55:28;;;;;;;7.43;5.97;;;;;;;5.94;100.00;102571.84;5072986;28;19977;-35
2022/11/13 02:57:53;;;;;;;7.47;5.60;;;;;;;5.97;100.00;102568.03;5074659;28;20028;-34
2022/11/13 03:00:19;;;;;;;6.63;5.60;;;;;;;5.98;100.00;102558.13;5076609;28;20031;-34
2022/11/13 03:02:44;;;;;;;9.30;6.07;;;;;;;6.10;100.00;102564.88;5076520;28;20035;-34
2022/11/13 03:05:10;;;;;;;8.97;6.43;;;;;;;6.13;100.00;102567.28;5076961;28;20029;-34
2022/11/13 03:07:35;;;;;;;8.50;6.00;;;;;;;6.15;100.00;102562.59;5076146;28;20085;-34
2022/11/13 03:10:00;;;;;;;8.30;6.20;;;;;;;6.13;100.00;102559.22;5076341;28;20090;-34
2022/11/13 03:12:26;;;;;;;7.30;5.93;;;;;;;6.19;100.00;102566.63;5077147;28;20055;-34
2022/11/13 03:14:51;;;;;;;9.70;6.73;;;;;;;6.21;100.00;102556.56;5076938;28;20024;-34
2022/11/13 03:17:16;;;;;;;8.60;6.40;;;;;;;6.17;100.00;102549.84;5076736;28;20035;-34
2022/11/13 03:19:42;;;;;;;10.37;7.17;;;;;;;6.24;100.00;102550.03;5075076;28;20559;-34
2022/11/13 03:22:07;;;;;;;9.17;6.27;;;;;;;6.18;100.00;102530.03;5076497;28;20028;-34
2022/11/13 03:24:33;;;;;;;7.60;6.17;;;;;;;6.28;100.00;102546.84;5076148;28;20503;-34
2022/11/13 03:26:58;;;;;;;9.27;6.27;;;;;;;6.33;100.00;102544.53;5076790;28;20312;-34
2022/11/13 03:29:23;;;;;;;8.97;6.23;;;;;;;6.33;100.00;102547.22;5076681;28;20115;-34
2022/11/13 03:31:48;;;;;;;7.33;5.90;;;;;;;6.36;100.00;102527.25;5076281;28;20035;-34
2022/11/13 03:34:14;;;;;;;7.30;6.23;;;;;;;6.39;100.00;102527.78;5076183;28;20027;-34
2022/11/13 03:36:39;;;;;;;7.67;5.90;;;;;;;6.33;100.00;102511.44;5076384;28;20020;-34
2022/11/13 03:39:04;;;;;;;8.77;6.00;;;;;;;6.40;100.00;102528.63;5076213;28;20456;-34
2022/11/13 03:41:30;;;;;;;7.93;5.67;;;;;;;6.44;100.00;102525.44;5076138;28;20029;-34
2022/11/13 03:43:55;;;;;;;7.60;5.90;;;;;;;6.39;100.00;102521.53;5075705;28;20024;-34
2022/11/13 03:46:20;;;;;;;7.10;5.60;;;;;;;6.49;100.00;102534.84;5075558;28;20025;-34
2022/11/13 03:48:46;;;;;;;8.93;5.80;;;;;;;6.43;100.00;102514.84;5075802;28;20104;-34
2022/11/13 03:51:11;;;;;;;8.73;6.00;;;;;;;6.47;100.00;102518.88;5075459;28;20051;-34
2022/11/13 03:53:36;;;;;;;8.63;6.13;;;;;;;6.39;100.00;102502.72;5075488;28;20028;-34
2022/11/13 03:56:02;;;;;;;7.97;5.83;;;;;;;6.53;100.00;102522.75;5075525;28;20044;-34
2022/11/13 03:58:27;;;;;;;8.03;6.17;;;;;;;6.49;100.00;102521.41;5075712;28;20025;-34
2022/11/13 04:00:54;;;;;;;7.80;6.23;;;;;;;6.45;100.00;102512.84;5075170;28;20032;-34
2022/11/13 04:03:20;;;;;;;6.80;5.40;;;;;;;6.53;100.00;102517.38;5075331;28;20097;-34
2022/11/13 04:05:47;;;;;;;6.28;5.63;;;;;;;6.47;100.00;102499.25;5073560;28;20131;-34
2022/11/13 04:08:13;;;;;;;6.45;5.47;;;;;;;6.54;100.00;102498.44;5073401;28;20034;-34
2022/11/13 04:10:38;;;;;;;7.30;5.85;;;;;;;6.53;100.00;102506.63;5075577;28;20086;-34
2022/11/13 04:13:04;;;;;;;8.17;5.70;;;;;;;6.55;100.00;102499.28;5075107;28;20028;-34
2022/11/13 04:15:29;;;;;;;7.30;5.73;;;;;;;6.58;100.00;102493.53;5075870;28;20113;-34
2022/11/13 04:17:54;;;;;;;5.93;5.30;;;;;;;6.54;100.00;102484.13;5075226;28;20047;-34
2022/11/13 04:20:20;;;;;;;9.33;5.33;;;;;;;6.61;100.00;102491.38;5075022;28;20032;-34
2022/11/13 04:22:45;;;;;;;7.33;5.60;;;;;;;6.68;100.00;102491.56;5075562;28;20046;-34
2022/11/13 04:25:10;;;;;;;7.03;5.60;;;;;;;6.69;100.00;102483.34;5074739;28;20558;-34
2022/11/13 04:27:36;;;;;;;6.17;5.00;;;;;;;6.73;100.00;102491.91;5074625;28;20468;-34
2022/11/13 04:30:02;;;;;;;7.17;6.23;;;;;;;6.75;100.00;102484.53;5074495;28;20117;-34
2022/11/13 04:32:27;;;;;;;7.55;5.60;;;;;;;6.73;100.00;102481.13;5074906;28;20132;-34
2022/11/13 04:34:53;;;;;;;6.50;5.57;;;;;;;6.72;100.00;102468.72;5075094;28;20450;-34
2022/11/13 04:37:18;;;;;;;8.63;6.17;;;;;;;6.77;100.00;102474.44;5075023;28;20071;-34
2022/11/13 04:39:43;;;;;;;9.03;6.07;;;;;;;6.77;100.00;102476.28;5074713;28;20396;-34
2022/11/13 04:44:54;;;;;;;6.30;5.55;;;;;;;6.72;100.00;102468.72;5074643;28;20090;-34
2022/11/13 04:47:19;;;;;;;7.57;5.50;;;;;;;6.72;100.00;102466.84;5075033;28;20384;-34
2022/11/13 04:49:45;;;;;;;8.37;5.33;;;;;;;6.70;100.00;102471.56;5074780;28;20033;-34
2022/11/13 04:52:10;;;;;;;8.33;5.90;;;;;;;6.67;100.00;102471.06;5074596;28;20029;-34
2022/11/13 04:54:36;;;;;;;6.67;5.80;;;;;;;6.67;100.00;102471.06;5074195;28;20017;-34
2022/11/13 04:57:01;;;;;;;7.38;5.63;;;;;;;6.64;100.00;102479.47;5074747;28;20040;-34
2022/11/13 04:59:26;;;;;;;6.77;5.60;;;;;;;6.62;100.00;102474.25;5074389;28;20028;-34
2022/11/13 05:01:54;;;;;;;13.80;7.17;;;;;;;6.59;100.00;102473.75;5073967;28;20035;-34
2022/11/13 05:04:20;;;;;;;8.82;5.90;;;;;;;6.52;100.00;102467.34;5074451;28;20025;-34
2022/11/13 05:06:45;;;;;;;7.28;5.93;;;;;;;6.58;100.00;102480.94;5074230;28;20413;-34
2022/11/13 05:09:10;;;;;;;8.00;5.40;;;;;;;6.56;100.00;102482.13;5073081;28;20060;-34
2022/11/13 05:11:36;;;;;;;6.10;5.23;;;;;;;6.47;100.00;102450.88;5073724;28;20075;-34
2022/11/13 05:14:01;;;;;;;7.23;5.33;;;;;;;6.58;100.00;102474.72;5074091;28;20029;-34
2022/11/13 05:16:26;;;;;;;6.97;6.00;;;;;;;6.52;100.00;102470.88;5074074;28;20043;-34
2022/11/13 05:18:52;;;;;;;7.00;5.43;;;;;;;6.51;100.00;102479.09;5074028;28;20035;-34
2022/11/13 05:21:17;;;;;;;8.07;5.32;;;;;;;6.56;100.00;102474.06;5072744;28;20070;-34
2022/11/13 05:23:42;;;;;;;8.03;6.43;;;;;;;6.43;100.00;102461.09;5073773;28;20476;-34
2022/11/13 05:26:12;;;;;;;7.20;5.77;;;;;;;6.29;100.00;102446.44;5073471;28;20108;-34
2022/11/13 05:28:38;;;;;;;6.88;5.47;;;;;;;6.40;100.00;102456.91;5073995;28;20044;-34
2022/11/13 05:31:11;;;;;;;6.97;5.53;;;;;;;6.35;100.00;102463.78;5074216;28;20071;-34
2022/11/13 05:33:38;;;;;;;6.57;4.97;;;;;;;6.29;100.00;102457.19;5073380;28;20028;-34
2022/11/13 05:36:09;;;;;;;7.03;5.32;;;;;;;6.20;100.00;102447.44;5073544;28;20031;-34
2022/11/13 05:38:35;;;;;;;7.68;5.13;;;;;;;6.15;100.00;102461.38;5073483;28;20389;-34
2022/11/13 05:41:12;;;;;;;6.30;5.18;;;;;;;6.09;100.00;102455.78;5074279;28;20024;-34
2022/11/13 05:43:38;;;;;;;7.43;5.10;;;;;;;6.00;100.00;102460.28;5073690;28;20025;-34
2022/11/13 05:46:06;;;;;;;7.22;5.70;;;;;;;5.88;100.00;102448.94;5073398;28;20028;-34
2022/11/13 05:48:33;;;;;;;7.15;4.68;;;;;;;5.92;100.00;102449.50;5073897;28;20059;-34
2022/11/13 05:51:04;;;;;;;7.85;5.40;;;;;;;5.81;100.00;102455.97;5073247;28;20024;-34
2022/11/13 05:53:32;;;;;;;5.85;5.20;;;;;;;5.85;100.00;102453.78;5074011;28;20416;-34
2022/11/13 05:56:06;;;;;;;6.90;5.00;;;;;;;5.69;100.00;102462.63;5073339;28;20373;-34
2022/11/13 05:58:33;;;;;;;8.02;6.22;;;;;;;5.62;100.00;102449.00;5073633;28;20408;-34
2022/11/13 06:01:10;;;;;;;7.35;5.72;;;;;;;5.64;100.00;102460.41;5073098;28;20029;-34
2022/11/13 06:03:36;;;;;;;5.93;4.50;;;;;;;5.66;100.00;102454.88;5073312;28;20028;-34
2022/11/13 06:06:01;;;;;;;5.90;5.30;;;;;;;5.40;100.00;102433.44;5073371;28;20108;-34
2022/11/13 06:08:27;;;;;;;6.93;5.45;;;;;;;5.52;100.00;102452.81;5073811;28;20045;-34
2022/11/13 06:10:57;;;;;;;7.78;6.07;;;;;;;5.51;100.00;102453.78;5073009;28;20063;-34
2022/11/13 06:13:23;;;;;;;7.18;5.68;;;;;;;5.44;100.00;102445.53;5073008;28;20028;-34
2022/11/13 06:15:48;;;;;;;7.47;5.53;;;;;;;5.37;100.00;102445.34;5072630;28;20161;-34
2022/11/13 06:18:13;;;;;;;7.43;5.57;;;;;;;5.32;100.00;102436.91;5072904;28;20021;-34
2022/11/13 06:20:39;;;;;;;7.97;5.77;;;;;;;5.28;100.00;102435.53;5072970;28;20460;-34
2022/11/13 06:23:04;;;;;;;7.00;5.20;;;;;;;5.35;100.00;102441.94;5073146;28;20035;-34
2022/11/13 06:25:29;;;;;;;7.17;5.60;;;;;;;5.35;100.00;102425.00;5072828;28;20025;-34
2022/11/13 06:27:54;;;;;;;6.73;5.43;;;;;;;5.30;100.00;102430.84;5073302;28;20035;-34
2022/11/13 06:30:20;;;;;;;5.87;5.17;;;;;;;5.15;100.00;102432.41;5072700;28;20461;-34
2022/11/13 06:32:52;;;;;;;6.97;5.17;;;;;;;5.11;100.00;102423.00;5072494;28;20060;-34
2022/11/13 06:35:17;;;;;;;7.35;5.63;;;;;;;5.02;100.00;102435.50;5073124;28;20128;-34
2022/11/13 06:37:42;;;;;;;7.23;4.90;;;;;;;5.06;100.00;102436.03;5073390;28;20081;-34
2022/11/13 06:40:08;;;;;;;5.97;5.00;;;;;;;5.10;100.00;102432.06;5072665;28;20028;-34
2022/11/13 06:42:33;;;;;;;7.20;5.50;;;;;;;5.04;100.00;102432.69;5072563;28;20020;-34
2022/11/13 06:44:59;;;;;;;6.53;5.43;;;;;;;5.08;100.00;102428.69;5072917;28;20028;-34
2022/11/13 06:47:24;;;;;;;7.43;5.10;;;;;;;5.10;100.00;102421.31;5073094;28;20033;-34
2022/11/13 06:49:49;;;;;;;7.53;5.37;;;;;;;5.03;100.00;102426.47;5071160;28;20353;-34
2022/11/13 06:52:14;;;;;;;7.13;5.57;;;;;;;4.95;100.00;102426.41;5072606;28;20059;-34
2022/11/13 06:54:40;;;;;;;7.13;5.63;;;;;;;4.91;100.00;102412.47;5072302;28;20025;-34
2022/11/13 06:57:05;;;;;;;7.93;6.10;;;;;;;4.80;100.00;102410.03;5072365;28;20511;-34
2022/11/13 06:59:30;;;;;;;6.97;5.70;;;;;;;4.86;100.00;102414.78;5073093;28;20032;-34
2022/11/13 07:01:56;;;;;;;7.83;4.90;;;;;;;4.97;100.00;102410.16;5073018;28;20031;-34
2022/11/13 07:04:21;;;;;;;6.87;5.23;;;;;;;4.88;100.00;102407.44;5073246;28;20060;-34
2022/11/13 07:06:46;;;;;;;10.00;5.90;;;;;;;4.94;100.00;102410.50;5072474;28;20452;-34
2022/11/13 07:09:12;;;;;;;8.57;5.93;;;;;;;4.86;100.00;102409.41;5072614;28;20477;-34
2022/11/13 07:11:37;;;;;;;8.07;5.60;;;;;;;4.87;100.00;102419.13;5072591;28;20115;-34
2022/11/13 07:14:02;;;;;;;7.80;5.37;;;;;;;4.90;100.00;102410.78;5072580;28;20024;-34
2022/11/13 07:16:27;;;;;;;7.87;6.00;;;;;;;4.84;100.00;102403.38;5072053;28;20125;-34
2022/11/13 07:18:53;;;;;;;10.07;6.40;;;;;;;4.87;100.00;102419.13;5072534;28;20027;-34
2022/11/13 07:21:19;;;;;;;9.25;6.47;;;;;;;4.85;100.00;102413.09;5072305;28;20039;-34
2022/11/13 07:23:46;;;;;;;;;;;;;;;4.96;100.00;102424.56;5073176;28;20029;-34
2022/11/13 07:26:11;;;;;;;7.55;5.57;;;;;;;4.80;100.00;102415.41;5071966;28;19915;-34
2022/11/13 07:28:37;;;;;;;7.13;5.63;;;;;;;4.77;100.00;102409.50;5072247;28;20032;-34
2022/11/13 07:31:03;;;;;;;7.78;6.43;;;;;;;4.79;100.00;102402.16;5072158;28;20029;-34
2022/11/13 07:33:28;;;;;;;8.10;5.90;;;;;;;4.91;100.00;102416.97;5072478;28;20067;-34
2022/11/13 07:35:57;;;;;;;9.90;7.20;;;;;;;4.84;100.00;102414.09;5072113;28;20032;-34
2022/11/13 07:38:23;;;;;;;8.48;6.38;;;;;;;4.71;100.00;102408.28;5072525;28;20088;-34
2022/11/13 07:40:49;;;;;;;8.07;6.13;;;;;;;4.85;100.00;102405.06;5072120;28;20032;-34
2022/11/13 07:43:14;;;;;;;7.43;5.78;;;;;;;4.96;100.00;102414.69;5072902;28;20376;-34
2022/11/13 07:45:39;;;;;;;6.93;5.67;;;;;;;4.81;100.00;102374.19;5075854;28;20406;-34
2022/11/13 07:48:05;;;;;;;6.87;5.30;;;;;;;5.14;100.00;102409.28;5075817;28;20090;-34
2022/11/13 07:50:36;;;;;;;8.65;6.45;;;;;;;5.11;100.00;102407.75;5075662;28;20527;-34
2022/11/13 07:53:04;;;;;;;8.50;5.78;;;;;;;5.25;100.00;102403.66;5075388;28;20025;-34
2022/11/13 07:55:31;;;;;;;8.05;5.60;;;;;;;5.21;100.00;102404.97;5076101;28;20131;-34
2022/11/13 07:57:58;;;;;;;7.45;5.55;;;;;;;5.29;100.00;102399.66;5075613;28;20101;-34
2022/11/13 08:00:25;;;;;;;9.60;6.85;;;;;;;5.28;100.00;102398.00;5075375;28;20058;-34
2022/11/13 08:02:50;;;;;;;8.23;7.00;;;;;;;5.35;100.00;102393.66;5075360;28;20075;-34
2022/11/13 08:05:16;;;;;;;6.90;5.33;;;;;;;5.53;100.00;102400.81;5075387;28;20059;-34
2022/11/13 08:07:41;;;;;;;7.13;5.50;;;;;;;5.43;100.00;102392.88;5076081;28;20028;-34
2022/11/13 08:10:07;;;;;;;10.60;6.00;;;;;;;5.50;100.00;102391.22;5074913;28;20354;-34
2022/11/13 08:12:32;;;;;;;8.52;6.18;;;;;;;5.58;100.00;102393.97;5075141;28;20032;-34
2022/11/13 08:14:57;;;;;;;12.53;7.63;;;;;;;5.59;100.00;102397.47;5075601;28;20032;-34
2022/11/13 08:17:23;;;;;;;7.27;6.23;;;;;;;5.53;100.00;102396.28;5076034;28;20025;-34
2022/11/13 08:19:48;;;;;;;8.83;6.93;;;;;;;5.59;100.00;102384.06;5075387;28;20025;-34
2022/11/13 08:22:13;;;;;;;8.17;6.40;;;;;;;5.66;100.00;102388.63;5074796;28;20028;-34
2022/11/13 08:24:39;;;;;;;10.30;6.77;;;;;;;5.78;100.00;102383.81;5075095;28;20025;-34
2022/11/13 08:27:05;;;;;;;6.70;5.90;;;;;;;5.61;100.00;102363.25;5075244;28;20052;-34
2022/11/13 08:29:30;;;;;;;8.02;6.03;;;;;;;5.65;100.00;102373.50;5074611;28;20579;-34
2022/11/13 08:31:56;;;;;;;6.87;5.73;;;;;;;5.92;100.00;102380.53;5074896;28;20028;-34
2022/11/13 08:34:21;;;;;;;7.60;5.97;;;;;;;6.11;100.00;102384.78;5075155;28;20035;-34
2022/11/13 08:36:47;;;;;;;7.37;5.63;;;;;;;6.30;100.00;102382.84;5074728;28;20025;-34
2022/11/13 08:39:13;;;;;;;7.00;5.90;;;;;;;6.16;100.00;102365.50;5075402;28;20111;-34
2022/11/13 08:41:38;;;;;;;9.60;6.40;;;;;;;6.39;100.00;102377.31;5074549;28;20028;-34
2022/11/13 08:44:03;;;;;;;6.77;5.47;;;;;;;6.50;100.00;102381.50;5074930;28;20414;-34
2022/11/13 08:46:29;;;;;;;7.03;5.82;;;;;;;6.48;100.00;102379.97;5074693;28;20067;-34
2022/11/13 08:48:54;;;;;;;6.67;5.57;;;;;;;6.65;100.00;102368.25;5074595;28;20059;-34
2022/11/13 08:51:20;;;;;;;7.27;6.13;;;;;;;6.69;100.00;102378.50;5074161;28;20033;-34
2022/11/13 08:53:45;;;;;;;8.02;6.07;;;;;;;6.84;100.00;102361.69;5074167;28;20059;-34
2022/11/13 08:56:11;;;;;;;7.97;6.07;;;;;;;6.92;100.00;102367.03;5074277;28;20048;-34
2022/11/13 08:58:36;;;;;;;6.67;5.87;;;;;;;7.04;100.00;102368.38;5074248;28;20468;-34
2022/11/13 09:01:03;;;;;;;7.97;5.83;;;;;;;7.09;100.00;102363.34;5074499;28;20369;-34
2022/11/13 09:03:28;;;;;;;6.25;5.65;;;;;;;7.11;100.00;102369.38;5074382;28;20020;-34
2022/11/13 09:05:53;;;;;;;6.63;5.43;;;;;;;7.30;100.00;102365.47;5074488;28;20043;-34
2022/11/13 09:08:18;;;;;;;6.70;5.73;;;;;;;7.28;100.00;102372.88;5074081;28;20025;-34
2022/11/13 09:10:44;;;;;;;8.13;5.90;;;;;;;7.34;99.43;102372.19;5074385;28;20538;-34
2022/11/13 09:13:10;;;;;;;8.17;6.37;;;;;;;7.46;98.85;102360.00;5074190;28;20028;-34
2022/11/13 09:15:36;;;;;;;;;;;;;;;7.68;98.36;102360.28;5074477;28;20066;-34
2022/11/13 09:18:02;;;;;;;7.65;6.55;;;;;;;7.72;98.57;102334.69;5074577;28;19909;-35
2022/11/13 09:20:29;;;;;;;6.35;5.20;;;;;;;8.01;93.40;102358.28;5073765;28;20048;-34
2022/11/13 09:23:06;;;;;;;6.07;5.15;;;;;;;8.10;96.86;102356.34;5074278;28;20179;-34
2022/11/13 09:25:34;;;;;;;7.10;5.22;;;;;;;8.20;95.30;102354.28;5074164;28;20055;-34
2022/11/13 09:28:00;;;;;;;6.40;4.80;;;;;;;8.26;93.53;102351.72;5074503;28;20423;-35
2022/11/13 09:30:27;;;;;;;8.73;5.22;;;;;;;8.38;92.58;102344.06;5073915;28;20028;-35
2022/11/13 09:32:57;;;;;;;6.20;4.68;;;;;;;8.45;93.76;102342.34;5073683;28;20473;-35
2022/11/13 09:35:33;;;;;;;7.43;5.20;;;;;;;8.55;92.71;102346.66;5074425;28;20115;-35
2022/11/13 09:38:10;;;;;;;6.67;4.80;;;;;;;8.59;92.23;102324.53;5073616;28;20524;-34
2022/11/13 09:41:06;;;;;;;5.38;4.88;;;;;;;8.71;92.58;102324.94;5073827;28;20086;-34
2022/11/13 09:43:51;;;;;;;5.88;4.70;;;;;;;8.84;88.98;102338.66;5074125;28;20043;-34
2022/11/13 09:46:44;;;;;;;5.43;4.63;;;;;;;8.95;90.71;102340.88;5073793;28;20032;-34
2022/11/13 09:49:25;;;;;;;18.60;5.53;;;;;;;9.01;91.02;102344.72;5073497;28;20116;-35
2022/11/13 09:51:56;;;;;;;5.55;4.93;;;;;;;9.08;89.65;102339.41;5074319;28;20039;-34
2022/11/13 09:54:23;;;;;;;5.85;4.80;;;;;;;9.15;90.74;102335.78;5073840;28;20106;-35
2022/11/13 09:57:07;;;;;;;5.57;5.00;;;;;;;9.20;88.66;102327.97;5074018;28;20120;-34
2022/11/13 09:59:41;;;;;;;7.07;4.90;;;;;;;9.37;87.57;102336.75;5073824;28;20039;-35
2022/11/13 10:02:06;;;;;;;5.63;4.60;;;;;;;9.48;86.61;102336.25;5073505;28;20078;-35
2022/11/13 10:04:50;;;;;;;6.00;4.03;;;;;;;9.58;85.98;102343.25;5073288;28;20032;-35
2022/11/13 10:07:27;;;;;;;5.57;4.20;;;;;;;9.65;86.95;102341.44;5072827;28;20476;-35
2022/11/13 10:10:15;;;;;;;8.48;4.10;;;;;;;9.76;84.55;102340.97;5073273;28;20032;-34
2022/11/13 10:12:41;;;;;;;5.35;3.95;;;;;;;9.83;85.04;102332.94;5073352;28;20107;-35
2022/11/13 10:15:09;;;;;;;5.32;3.70;;;;;;;9.86;83.97;102319.91;5073000;28;20065;-34
2022/11/13 10:17:43;;;;;;;5.18;3.88;;;;;;;9.92;84.17;102321.00;5073335;28;20032;-35
2022/11/13 10:20:18;;;;;;;6.10;3.83;;;;;;;10.01;85.64;102330.69;5072748;28;20028;-34
2022/11/13 10:22:51;;;;;;;5.85;3.95;;;;;;;10.11;83.28;102324.97;5073515;28;20450;-34
2022/11/13 10:25:17;;;;;;;4.70;3.90;;;;;;;10.22;82.18;102327.16;5072810;28;20142;-35
2022/11/13 10:27:49;;;;;;;6.07;4.28;;;;;;;10.33;82.98;102323.94;5072642;28;20060;-35
2022/11/13 10:30:16;;;;;;;5.50;4.05;;;;;;;10.35;82.97;102311.09;5072538;28;20476;-34
2022/11/13 10:32:43;;;;;;;4.25;3.85;;;;;;;10.50;79.10;102314.56;5073367;28;20032;-35
2022/11/13 10:35:27;;;;;;;6.70;4.28;;;;;;;10.61;82.17;102318.59;5072496;28;20145;-35
2022/11/13 10:38:15;;;;;;;4.85;4.00;;;;;;;10.64;78.87;102311.94;5073409;28;20099;-35
2022/11/13 10:40:40;;;;;;;4.80;3.72;;;;;;;10.75;79.52;102301.44;5072766;28;20044;-35
2022/11/13 10:43:13;;;;;;;5.50;3.85;;;;;;;10.86;78.89;102302.75;5073090;28;20480;-35
2022/11/13 10:45:39;;;;;;;5.18;3.70;;;;;;;10.98;76.59;102295.78;5072444;28;20137;-35
2022/11/13 10:48:05;;;;;;;4.53;4.13;;;;;;;11.01;77.67;102289.13;5073206;28;20032;-35
2022/11/13 10:50:31;;;;;;;5.07;3.67;;;;;;;11.13;76.43;102289.41;5072801;28;20024;-35
2022/11/13 10:52:58;;;;;;;4.45;3.70;;;;;;;11.19;76.46;102280.50;5072888;28;20028;-35
2022/11/13 10:55:39;;;;;;;;;;;;;;;11.30;81.32;102285.31;5072922;28;20376;-35
2022/11/13 10:58:18;;;;;;;6.18;3.80;;;;;;;11.32;77.55;102281.41;5072657;28;19920;-35
2022/11/13 11:00:47;;;;;;;3.90;3.50;;;;;;;11.39;76.59;102275.16;5072637;28;20048;-35
2022/11/13 11:03:21;;;;;;;4.55;3.53;;;;;;;11.43;76.22;102268.31;5072718;28;20032;-34
2022/11/13 11:06:01;;;;;;;4.13;3.65;;;;;;;11.51;77.09;102262.69;5072507;28;20421;-35
2022/11/13 11:08:33;;;;;;;4.80;3.42;;;;;;;11.62;76.29;102261.31;5072967;28;20021;-35
2022/11/13 11:14:30;;;;;;;3.90;3.17;;;;;;;11.79;76.24;102255.28;5072975;28;20040;-34
2022/11/13 11:16:59;;;;;;;6.97;3.40;;;;;;;11.83;73.55;102250.34;5010187;28;20057;-34
2022/11/13 11:19:28;;;;;;;4.55;3.42;;;;;;;11.94;73.28;102247.00;5013085;28;20104;-35
2022/11/13 11:22:05;;;;;;;3.72;3.20;;;;;;;11.95;73.22;102245.97;4997640;28;20133;-35
2022/11/13 11:24:39;;;;;;;4.40;3.13;;;;;;;12.02;72.15;102238.69;5014772;28;20502;-35
2022/11/13 11:27:21;;;;;;;3.63;2.58;;;;;;;12.19;70.52;102241.81;5014739;28;20430;-35
2022/11/13 11:30:06;;;;;;;3.90;3.17;;;;;;;12.29;71.92;102247.66;5014179;28;20034;-35
2022/11/13 11:32:44;;;;;;;4.35;3.10;;;;;;;12.36;70.36;102247.69;5014147;28;20029;-34
2022/11/13 11:35:20;;;;;;;4.13;3.05;;;;;;;12.37;69.89;102230.38;5014124;28;20042;-34